Time;durP1;ratioP1;P1;durP2;ratioP2;P2;SDS_P1;SDS_P2;PMS_P1;PMS_P2;Temp;Humidity;BMP_temperature;BMP_pressure;BME280_temperature;BME280_humidity;BME280_pressure;Samples;Min_cycle;Max_cycle;Signal;HPM_P1;HPM_P2
2021/07/12 00:01:53;;;;;;;8.88;5.38;;;;;;;;;;5101704;28;20028;-88
2021/07/12 00:04:20;;;;;;;10.40;5.68;;;;;;;;;;5101781;28;20020;-89
2021/07/12 00:06:46;;;;;;;10.27;5.72;;;;;;;;;;5101619;28;20104;-88
2021/07/12 00:09:12;;;;;;;11.77;6.47;;;;;;;;;;5100683;28;20023;-89
2021/07/12 00:11:38;;;;;;;13.93;5.88;;;;;;;;;;5101246;28;20020;-89
2021/07/12 00:14:04;;;;;;;10.52;5.40;;;;;;;;;;5099731;28;20036;-90
2021/07/12 00:16:30;;;;;;;11.00;6.00;;;;;;;;;;5101213;28;20310;-90
2021/07/12 00:18:56;;;;;;;11.73;6.00;;;;;;;;;;5100982;28;20031;-90
2021/07/12 00:21:22;;;;;;;13.70;5.85;;;;;;;;;;5101352;28;20102;-91
2021/07/12 00:23:49;;;;;;;11.20;6.22;;;;;;;;;;5100172;28;20024;-90
2021/07/12 00:26:16;;;;;;;14.18;5.97;;;;;;;;;;5100102;28;20039;-91
2021/07/12 00:28:42;;;;;;;9.75;6.05;;;;;;;;;;5101163;28;20026;-90
2021/07/12 00:31:08;;;;;;;14.93;6.25;;;;;;;;;;5100918;28;20421;-90
2021/07/12 00:33:34;;;;;;;9.35;5.72;;;;;;;;;;5100056;28;20016;-90
2021/07/12 00:36:00;;;;;;;13.55;5.97;;;;;;;;;;5101176;28;20054;-90
2021/07/12 00:38:27;;;;;;;8.75;5.75;;;;;;;;;;5101244;28;20119;-90
2021/07/12 00:40:53;;;;;;;14.80;6.40;;;;;;;;;;5099508;28;20081;-90
2021/07/12 00:43:19;;;;;;;13.30;6.05;;;;;;;;;;5100971;28;20114;-90
2021/07/12 00:45:46;;;;;;;12.50;6.40;;;;;;;;;;5100768;28;20310;-91
2021/07/12 00:48:12;;;;;;;10.80;5.82;;;;;;;;;;5099910;28;20024;-91
2021/07/12 00:50:40;;;;;;;11.95;6.13;;;;;;;;;;5099562;28;20410;-90
2021/07/12 00:53:07;;;;;;;15.65;6.00;;;;;;;;;;5100025;28;21049;-90
2021/07/12 00:55:40;;;;;;;14.38;6.05;;;;;;;;;;5100543;28;20283;-90
2021/07/12 00:58:08;;;;;;;8.30;5.70;;;;;;;;;;5100360;28;20028;-89
2021/07/12 01:00:34;;;;;;;16.60;6.53;;;;;;;;;;5100672;28;20081;-88
2021/07/12 01:03:00;;;;;;;9.60;6.22;;;;;;;;;;5100826;28;20028;-90
2021/07/12 01:05:31;;;;;;;11.90;6.18;;;;;;;;;;5098438;28;20059;-89
2021/07/12 01:11:14;;;;;;;13.25;5.75;;;;;;;;;;5100582;28;20404;-89
2021/07/12 01:13:40;;;;;;;11.05;6.18;;;;;;;;;;5099125;28;20052;-88
2021/07/12 01:16:12;;;;;;;12.95;6.25;;;;;;;;;;5100049;28;20035;-90
2021/07/12 01:18:42;;;;;;;7.80;5.85;;;;;;;;;;5099974;28;20096;-88
2021/07/12 01:21:27;;;;;;;8.48;6.13;;;;;;;;;;5099000;28;20051;-87
2021/07/12 01:24:24;;;;;;;12.88;6.50;;;;;;;;;;5099015;28;20432;-89
2021/07/12 01:27:12;;;;;;;8.75;6.18;;;;;;;;;;5099783;28;20035;-90
2021/07/12 01:30:02;;;;;;;11.52;5.93;;;;;;;;;;5099803;28;20051;-90
2021/07/12 01:32:38;;;;;;;9.95;6.35;;;;;;;;;;5099043;28;20039;-90
2021/07/12 01:35:12;;;;;;;11.73;5.88;;;;;;;;;;5098771;28;20023;-89
2021/07/12 01:37:38;;;;;;;12.18;6.90;;;;;;;;;;5098716;28;20028;-88
2021/07/12 01:40:08;;;;;;;10.07;6.10;;;;;;;;;;5099737;28;20055;-88
2021/07/12 01:42:38;;;;;;;11.20;5.82;;;;;;;;;;5098574;28;20055;-89
2021/07/12 01:45:06;;;;;;;10.40;5.43;;;;;;;;;;5100259;28;20287;-89
2021/07/12 01:47:41;;;;;;;9.68;6.40;;;;;;;;;;5099418;28;20027;-89
2021/07/12 01:50:10;;;;;;;10.38;5.38;;;;;;;;;;5099049;28;20069;-88
2021/07/12 01:59:02;;;;;;;10.38;5.85;;;;;;;;;;5099306;28;20037;-89
2021/07/12 02:01:29;;;;;;;9.90;5.80;;;;;;;;;;5099493;28;20028;-89
2021/07/12 02:03:55;;;;;;;9.57;6.10;;;;;;;;;;5099363;28;20028;-89
2021/07/12 02:06:22;;;;;;;9.45;5.90;;;;;;;;;;5099377;28;20058;-88
2021/07/12 02:08:50;;;;;;;7.82;6.00;;;;;;;;;;5098987;28;20076;-89
2021/07/12 02:11:16;;;;;;;8.70;5.80;;;;;;;;;;5098904;28;20023;-87
2021/07/12 02:13:44;;;;;;;12.95;6.45;;;;;;;;;;5098787;28;20095;-87
2021/07/12 02:16:10;;;;;;;10.40;6.30;;;;;;;;;;5098819;28;20032;-89
2021/07/12 02:18:37;;;;;;;11.55;6.30;;;;;;;;;;5098912;28;20016;-88
2021/07/12 02:21:04;;;;;;;15.45;6.60;;;;;;;;;;5098776;28;20049;-89
2021/07/12 02:23:31;;;;;;;9.27;6.40;;;;;;;;;;5099006;28;20024;-89
2021/07/12 02:25:57;;;;;;;10.18;6.28;;;;;;;;;;5098614;28;20027;-89
2021/07/12 02:28:24;;;;;;;14.20;6.80;;;;;;;;;;5098708;28;20313;-89
2021/07/12 02:30:51;;;;;;;10.20;6.18;;;;;;;;;;5099044;28;20016;-89
2021/07/12 02:33:18;;;;;;;9.55;6.45;;;;;;;;;;5098916;28;20043;-89
2021/07/12 02:35:44;;;;;;;11.55;6.57;;;;;;;;;;5098503;28;20024;-89
2021/07/12 02:38:26;;;;;;;10.02;6.65;;;;;;;;;;5097623;28;20028;-89
2021/07/12 02:40:53;;;;;;;16.83;7.22;;;;;;;;;;5098730;28;20032;-90
2021/07/12 02:43:19;;;;;;;11.35;7.45;;;;;;;;;;5097463;28;20024;-89
2021/07/12 02:45:46;;;;;;;13.50;7.50;;;;;;;;;;5098417;28;20123;-87
2021/07/12 02:48:13;;;;;;;10.88;6.82;;;;;;;;;;5097401;28;20024;-87
2021/07/12 02:50:39;;;;;;;10.35;7.20;;;;;;;;;;5097335;28;20026;-88
2021/07/12 02:53:12;;;;;;;13.07;6.65;;;;;;;;;;5097397;28;20425;-88
2021/07/12 02:55:38;;;;;;;11.77;7.30;;;;;;;;;;5098379;28;20024;-89
2021/07/12 02:58:04;;;;;;;11.80;7.20;;;;;;;;;;5098467;28;20028;-89
2021/07/12 03:00:30;;;;;;;14.07;7.63;;;;;;;;;;5098503;28;20310;-89
2021/07/12 03:02:56;;;;;;;13.32;7.53;;;;;;;;;;5098472;28;20028;-89
2021/07/12 03:05:22;;;;;;;15.02;7.13;;;;;;;;;;5098301;28;20295;-89
2021/07/12 03:07:51;;;;;;;9.70;7.07;;;;;;;;;;5096752;28;20043;-88
2021/07/12 03:13:28;;;;;;;11.85;7.90;;;;;;;;;;5098028;28;20369;-89
2021/07/12 03:15:55;;;;;;;12.57;7.40;;;;;;;;;;5098239;28;20043;-89
2021/07/12 03:18:21;;;;;;;13.50;7.70;;;;;;;;;;5098364;28;20024;-88
2021/07/12 03:20:48;;;;;;;12.88;7.13;;;;;;;;;;5097871;28;20098;-88
2021/07/12 03:29:22;;;;;;;17.30;7.32;;;;;;;;;;5097619;28;20031;-89
2021/07/12 03:31:49;;;;;;;11.32;7.07;;;;;;;;;;5097979;28;20078;-89
2021/07/12 03:34:17;;;;;;;21.10;7.72;;;;;;;;;;5096911;28;20103;-89
2021/07/12 03:36:44;;;;;;;11.20;7.20;;;;;;;;;;5097774;28;20052;-89
2021/07/12 03:42:14;;;;;;;11.38;7.60;;;;;;;;;;5097755;28;20329;-88
2021/07/12 03:44:40;;;;;;;11.45;7.35;;;;;;;;;;5097503;28;20031;-88
2021/07/12 03:47:06;;;;;;;10.75;7.28;;;;;;;;;;5097486;28;20036;-88
2021/07/12 03:49:33;;;;;;;16.80;8.43;;;;;;;;;;5097850;28;20024;-90
2021/07/12 03:51:59;;;;;;;10.77;7.40;;;;;;;;;;5097865;28;20021;-90
2021/07/12 03:54:25;;;;;;;13.80;8.63;;;;;;;;;;5097934;28;20077;-90
2021/07/12 03:56:52;;;;;;;12.20;8.00;;;;;;;;;;5097510;28;20032;-91
2021/07/12 03:59:18;;;;;;;16.23;8.32;;;;;;;;;;5096656;28;20024;-90
2021/07/12 04:01:44;;;;;;;17.00;8.75;;;;;;;;;;5097283;28;20161;-90
2021/07/12 04:04:10;;;;;;;15.15;8.77;;;;;;;;;;5097671;28;20024;-90
2021/07/12 04:06:36;;;;;;;13.93;9.27;;;;;;;;;;5097843;28;20028;-90
2021/07/12 04:12:07;;;;;;;20.80;10.15;;;;;;;;;;5097570;28;20306;-91
2021/07/12 04:14:33;;;;;;;15.80;9.73;;;;;;;;;;5097026;28;20036;-89
2021/07/12 04:16:59;;;;;;;16.42;10.43;;;;;;;;;;5097246;28;20447;-91
2021/07/12 04:19:25;;;;;;;12.73;9.98;;;;;;;;;;5096339;28;20032;-90
2021/07/12 04:21:51;;;;;;;16.55;9.80;;;;;;;;;;5097376;28;20020;-88
2021/07/12 04:30:25;;;;;;;16.73;10.13;;;;;;;;;;5097556;28;20112;-88
2021/07/12 04:32:51;;;;;;;14.57;9.85;;;;;;;;;;5097409;28;20020;-87
2021/07/12 04:35:18;;;;;;;14.05;9.23;;;;;;;;;;5097099;28;20061;-90
2021/07/12 04:37:44;;;;;;;13.02;9.55;;;;;;;;;;5096287;28;20055;-89
2021/07/12 04:40:10;;;;;;;13.82;9.95;;;;;;;;;;5097481;28;20065;-90
2021/07/12 04:42:36;;;;;;;15.32;9.57;;;;;;;;;;5100283;28;20020;-88
2021/07/12 04:45:03;;;;;;;10.70;8.25;;;;;;;;;;5099760;28;20097;-88
2021/07/12 04:47:29;;;;;;;14.35;9.13;;;;;;;;;;5100925;28;20023;-86
2021/07/12 04:49:55;;;;;;;15.95;9.15;;;;;;;;;;5099615;28;20020;-87
2021/07/12 04:52:21;;;;;;;16.83;9.95;;;;;;;;;;5100859;28;20109;-88
2021/07/12 04:54:47;;;;;;;12.65;9.10;;;;;;;;;;5100834;28;20024;-88
2021/07/12 04:57:14;;;;;;;13.50;10.02;;;;;;;;;;5100686;28;20027;-89
2021/07/12 04:59:40;;;;;;;20.25;9.77;;;;;;;;;;5100597;28;20028;-89
2021/07/12 05:02:07;;;;;;;13.40;9.95;;;;;;;;;;5099510;28;20020;-89
2021/07/12 05:04:33;;;;;;;14.68;9.38;;;;;;;;;;5100677;28;20062;-89
2021/07/12 05:07:00;;;;;;;12.20;9.65;;;;;;;;;;5100408;28;20028;-89
2021/07/12 05:09:26;;;;;;;14.90;9.52;;;;;;;;;;5099422;28;20020;-89
2021/07/12 05:11:52;;;;;;;11.27;9.30;;;;;;;;;;5099308;28;20024;-90
2021/07/12 05:14:19;;;;;;;15.00;9.20;;;;;;;;;;5099931;28;20127;-89
2021/07/12 05:16:45;;;;;;;15.48;9.05;;;;;;;;;;5100107;28;20414;-89
2021/07/12 05:19:14;;;;;;;14.57;8.85;;;;;;;;;;5098812;28;20043;-89
2021/07/12 05:21:40;;;;;;;15.88;9.45;;;;;;;;;;5098735;28;20032;-88
2021/07/12 05:24:06;;;;;;;14.77;9.02;;;;;;;;;;5098700;28;20036;-89
2021/07/12 05:26:32;;;;;;;11.63;8.98;;;;;;;;;;5098589;28;20036;-89
2021/07/12 05:28:58;;;;;;;14.13;9.65;;;;;;;;;;5100231;28;20019;-89
2021/07/12 05:31:24;;;;;;;10.13;8.85;;;;;;;;;;5099127;28;20031;-89
2021/07/12 05:33:51;;;;;;;16.63;9.48;;;;;;;;;;5098880;28;20179;-88
2021/07/12 05:36:17;;;;;;;10.40;8.43;;;;;;;;;;5099574;28;20023;-89
2021/07/12 05:38:43;;;;;;;12.85;8.82;;;;;;;;;;5099712;28;20048;-88
2021/07/12 05:41:28;;;;;;;10.95;8.93;;;;;;;;;;5098781;28;20319;-88
2021/07/12 05:43:54;;;;;;;12.18;8.88;;;;;;;;;;5099389;28;20055;-88
2021/07/12 05:46:20;;;;;;;11.77;9.23;;;;;;;;;;5098462;28;20047;-88
2021/07/12 05:48:46;;;;;;;13.60;8.23;;;;;;;;;;5099699;28;20103;-88
2021/07/12 05:51:12;;;;;;;19.45;9.70;;;;;;;;;;5099718;28;20043;-88
2021/07/12 05:53:38;;;;;;;10.13;8.85;;;;;;;;;;5097609;28;20036;-88
2021/07/12 05:59:08;;;;;;;13.85;8.90;;;;;;;;;;5099434;28;20429;-89
2021/07/12 06:01:34;;;;;;;19.00;10.13;;;;;;;;;;5103029;27;20084;-88
2021/07/12 06:04:00;;;;;;;14.95;9.40;;;;;;;;;;5108363;28;20028;-90
2021/07/12 06:06:26;;;;;;;18.65;9.65;;;;;;;;;;5099136;28;20031;-89
2021/07/12 06:08:52;;;;;;;12.80;9.57;;;;;;;;;;5097990;28;20028;-88
2021/07/12 06:11:18;;;;;;;11.95;9.70;;;;;;;;;;5099143;28;20158;-89
2021/07/12 06:13:44;;;;;;;13.50;9.88;;;;;;;;;;5098716;28;20051;-89
2021/07/12 06:16:11;;;;;;;14.05;10.55;;;;;;;;;;5099182;28;20025;-88
2021/07/12 06:18:37;;;;;;;14.30;10.07;;;;;;;;;;5098714;28;20089;-90
2021/07/12 06:21:03;;;;;;;12.98;10.23;;;;;;;;;;5099233;28;20032;-90
2021/07/12 06:23:29;;;;;;;14.63;9.93;;;;;;;;;;5097936;28;20047;-90
2021/07/12 06:28:59;;;;;;;17.05;10.32;;;;;;;;;;5099137;28;20027;-90
2021/07/12 06:31:25;;;;;;;20.05;10.20;;;;;;;;;;5098480;28;20024;-90
2021/07/12 06:33:51;;;;;;;18.50;10.40;;;;;;;;;;5098699;28;20035;-89
2021/07/12 06:36:17;;;;;;;14.75;10.38;;;;;;;;;;5098526;28;20035;-89
2021/07/12 06:38:43;;;;;;;17.77;10.20;;;;;;;;;;5098861;28;20035;-90
2021/07/12 06:41:09;;;;;;;18.35;11.38;;;;;;;;;;5097659;28;20031;-89
2021/07/12 06:43:35;;;;;;;14.65;10.32;;;;;;;;;;5098274;28;20120;-89
2021/07/12 06:46:01;;;;;;;14.80;9.85;;;;;;;;;;5098521;28;20036;-89
2021/07/12 06:48:28;;;;;;;15.57;11.75;;;;;;;;;;5098614;28;20024;-89
2021/07/12 06:50:54;;;;;;;16.70;12.40;;;;;;;;;;5098435;28;20020;-86
2021/07/12 06:53:20;;;;;;;23.77;13.13;;;;;;;;;;5097701;28;20070;-79
2021/07/12 06:55:46;;;;;;;16.60;13.05;;;;;;;;;;5095845;28;20056;-79
2021/07/12 06:58:12;;;;;;;15.63;11.70;;;;;;;;;;5097534;28;20492;-79
2021/07/12 07:00:42;;;;;;;15.20;11.65;;;;;;;;;;5096564;28;20027;-78
2021/07/12 07:03:09;;;;;;;16.02;11.43;;;;;;;;;;5097447;28;20035;-79
2021/07/12 07:05:35;;;;;;;12.80;10.98;;;;;;;;;;5095862;28;20062;-79
2021/07/12 07:08:02;;;;;;;13.63;11.02;;;;;;;;;;5097874;28;20409;-79
2021/07/12 07:10:28;;;;;;;16.25;10.95;;;;;;;;;;5097362;28;20036;-79
2021/07/12 07:12:54;;;;;;;15.27;10.25;;;;;;;;;;5097199;28;20386;-79
2021/07/12 07:15:20;;;;;;;12.80;11.20;;;;;;;;;;5097146;28;20346;-79
2021/07/12 07:17:46;;;;;;;12.13;10.63;;;;;;;;;;5095563;28;20034;-79
2021/07/12 07:20:12;;;;;;;16.58;10.65;;;;;;;;;;5097216;28;20024;-79
2021/07/12 07:22:38;;;;;;;13.50;10.98;;;;;;;;;;5097120;28;20020;-79
2021/07/12 07:25:05;;;;;;;11.60;9.70;;;;;;;;;;5097095;28;20398;-79
2021/07/12 07:27:31;;;;;;;15.38;10.45;;;;;;;;;;5097047;28;20028;-79
2021/07/12 07:29:57;;;;;;;14.68;10.23;;;;;;;;;;5095804;28;20032;-79
2021/07/12 07:32:23;;;;;;;12.80;10.45;;;;;;;;;;5097102;28;20020;-79
2021/07/12 07:34:50;;;;;;;16.73;10.20;;;;;;;;;;5097157;28;20020;-79
2021/07/12 07:37:16;;;;;;;12.27;9.68;;;;;;;;;;5096993;28;20024;-78
2021/07/12 07:39:42;;;;;;;11.80;10.60;;;;;;;;;;5097058;28;20318;-79
2021/07/12 07:42:08;;;;;;;14.30;9.38;;;;;;;;;;5097098;28;20101;-79
2021/07/12 07:44:34;;;;;;;12.07;9.85;;;;;;;;;;5097148;28;20077;-79
2021/07/12 07:47:01;;;;;;;15.85;10.13;;;;;;;;;;5100462;28;20039;-79
2021/07/12 07:49:28;;;;;;;11.57;9.32;;;;;;;;;;5104758;28;20024;-79
2021/07/12 07:51:54;;;;;;;12.95;9.35;;;;;;;;;;5096787;28;20028;-79
2021/07/12 07:54:20;;;;;;;16.58;10.30;;;;;;;;;;5096798;28;20110;-80
2021/07/12 07:56:46;;;;;;;18.08;10.52;;;;;;;;;;5098520;28;20023;-79
2021/07/12 07:59:14;;;;;;;12.77;9.52;;;;;;;;;;5106456;28;20131;-79
2021/07/12 08:01:40;;;;;;;11.23;9.15;;;;;;;;;;5108669;28;20032;-79
2021/07/12 08:04:06;;;;;;;11.93;9.38;;;;;;;;;;5104445;28;20177;-78
2021/07/12 08:06:32;;;;;;;19.90;14.23;;;;;;;;;;5096838;28;20032;-79
2021/07/12 08:08:58;;;;;;;12.80;9.73;;;;;;;;;;5096763;28;20444;-79
2021/07/12 08:11:25;;;;;;;19.15;10.23;;;;;;;;;;5095106;28;20032;-80
2021/07/12 08:13:51;;;;;;;14.07;9.63;;;;;;;;;;5098984;28;20127;-79
2021/07/12 08:16:17;;;;;;;13.02;9.02;;;;;;;;;;5103926;28;20052;-79
2021/07/12 08:18:43;;;;;;;10.52;8.35;;;;;;;;;;5101142;28;20024;-79
2021/07/12 08:21:11;;;;;;;11.68;8.80;;;;;;;;;;5099551;28;20024;-79
2021/07/12 08:23:39;;;;;;;12.52;7.78;;;;;;;;;;5100858;28;20368;-80
2021/07/12 08:26:05;;;;;;;13.25;8.05;;;;;;;;;;5099002;28;20036;-79
2021/07/12 08:28:31;;;;;;;29.40;23.40;;;;;;;;;;5100566;28;20073;-80
2021/07/12 08:30:57;;;;;;;18.08;13.35;;;;;;;;;;5101368;28;20020;-78
2021/07/12 08:33:23;;;;;;;17.90;14.13;;;;;;;;;;5100698;28;20028;-79
2021/07/12 08:35:50;;;;;;;15.82;9.35;;;;;;;;;;5100272;28;20050;-79
2021/07/12 08:38:16;;;;;;;16.80;8.88;;;;;;;;;;5100268;28;20032;-78
2021/07/12 08:40:42;;;;;;;15.32;7.57;;;;;;;;;;5100148;28;20020;-79
2021/07/12 08:43:08;;;;;;;10.68;8.38;;;;;;;;;;5099845;28;20052;-78
2021/07/12 08:45:34;;;;;;;16.45;7.95;;;;;;;;;;5098904;28;20083;-79
2021/07/12 08:48:01;;;;;;;13.80;8.88;;;;;;;;;;5100201;28;20016;-78
2021/07/12 08:50:28;;;;;;;12.77;7.78;;;;;;;;;;5099974;28;20027;-78
2021/07/12 08:52:55;;;;;;;11.35;7.47;;;;;;;;;;5099925;28;20314;-78
2021/07/12 08:55:21;;;;;;;12.05;8.25;;;;;;;;;;5099579;28;20024;-78
2021/07/12 08:58:02;;;;;;;11.18;8.20;;;;;;;;;;5099033;28;20020;-79
2021/07/12 09:00:39;;;;;;;8.00;7.20;;;;;;;;;;5099790;28;20318;-79
2021/07/12 09:03:26;;;;;;;10.13;8.07;;;;;;;;;;5099824;28;20024;-79
2021/07/12 09:06:01;;;;;;;12.45;7.70;;;;;;;;;;5100036;28;20028;-78
2021/07/12 09:08:37;;;;;;;14.07;8.30;;;;;;;;;;5099710;28;20430;-79
2021/07/12 09:11:07;;;;;;;11.13;7.40;;;;;;;;;;5099719;28;20024;-79
2021/07/12 09:13:45;;;;;;;13.85;8.48;;;;;;;;;;5099441;28;20027;-78
2021/07/12 09:16:32;;;;;;;13.65;7.75;;;;;;;;;;5099669;28;20028;-78
2021/07/12 09:19:10;;;;;;;14.02;7.93;;;;;;;;;;5099472;28;20385;-78
2021/07/12 09:22:16;;;;;;;15.02;9.00;;;;;;;;;;5099408;28;20473;-78
2021/07/12 09:24:50;;;;;;;10.93;7.10;;;;;;;;;;5017470;28;20053;-78
2021/07/12 09:27:19;;;;;;;12.05;7.03;;;;;;;;;;5016646;28;20029;-78
2021/07/12 09:29:46;;;;;;;12.15;6.97;;;;;;;;;;5017349;28;20034;-78
2021/07/12 09:32:13;;;;;;;9.50;7.15;;;;;;;;;;5017480;28;20045;-78
2021/07/12 09:34:40;;;;;;;15.18;7.75;;;;;;;;;;5017390;28;20026;-78
2021/07/12 09:37:07;;;;;;;12.00;7.30;;;;;;;;;;5017239;28;20080;-78
2021/07/12 09:39:42;;;;;;;10.85;7.65;;;;;;;;;;5017207;28;20045;-78
2021/07/12 09:42:10;;;;;;;10.63;6.75;;;;;;;;;;5017133;28;20042;-78
2021/07/12 09:44:38;;;;;;;16.08;8.05;;;;;;;;;;5016915;28;20108;-78
2021/07/12 09:47:05;;;;;;;17.20;7.90;;;;;;;;;;5017264;28;20088;-78
2021/07/12 09:49:31;;;;;;;12.73;6.75;;;;;;;;;;5031833;28;20038;-79
2021/07/12 09:51:59;;;;;;;11.52;9.40;;;;;;;;;;5035780;28;20037;-78
2021/07/12 09:54:29;;;;;;;13.55;9.52;;;;;;;;;;5044861;28;20025;-78
2021/07/12 09:56:56;;;;;;;9.57;7.55;;;;;;;;;;5118308;28;20454;-79
2021/07/12 09:59:23;;;;;;;14.70;7.78;;;;;;;;;;5119342;28;20087;-78
2021/07/12 10:01:50;;;;;;;9.35;7.07;;;;;;;;;;5118167;28;20034;-78
2021/07/12 10:04:17;;;;;;;14.07;10.52;;;;;;;;;;5118843;28;20023;-79
2021/07/12 10:06:44;;;;;;;10.57;8.38;;;;;;;;;;5118564;28;20023;-79
2021/07/12 10:09:11;;;;;;;15.27;13.55;;;;;;;;;;5118989;28;20016;-79
2021/07/12 10:11:37;;;;;;;8.48;7.00;;;;;;;;;;5118522;28;20023;-79
2021/07/12 10:14:04;;;;;;;9.70;7.63;;;;;;;;;;5118618;28;20039;-79
2021/07/12 10:16:30;;;;;;;10.98;7.28;;;;;;;;;;5118880;28;20038;-78
2021/07/12 10:18:57;;;;;;;13.43;7.45;;;;;;;;;;5117508;28;20020;-78
2021/07/12 10:21:23;;;;;;;20.67;18.33;;;;;;;;;;5116969;28;20096;-79
2021/07/12 10:23:56;;;;;;;17.80;13.88;;;;;;;;;;5118855;28;20020;-79
2021/07/12 10:26:41;;;;;;;13.98;9.70;;;;;;;;;;5117504;28;20410;-78
2021/07/12 10:29:17;;;;;;;11.40;7.43;;;;;;;;;;5118396;28;20026;-77
2021/07/12 10:31:55;;;;;;;8.55;6.93;;;;;;;;;;5118343;28;20015;-77
2021/07/12 10:34:40;;;;;;;12.02;6.53;;;;;;;;;;5118499;28;20040;-77
2021/07/12 10:37:20;;;;;;;10.45;6.70;;;;;;;;;;5118231;28;20432;-77
2021/07/12 10:40:05;;;;;;;9.88;6.57;;;;;;;;;;5118206;28;20024;-77
2021/07/12 10:42:43;;;;;;;8.20;6.70;;;;;;;;;;5116845;28;20032;-77
2021/07/12 10:45:09;;;;;;;13.63;6.72;;;;;;;;;;5118168;28;20031;-77
2021/07/12 10:47:47;;;;;;;9.15;6.63;;;;;;;;;;5118162;28;20049;-77
2021/07/12 10:50:32;;;;;;;8.52;7.25;;;;;;;;;;5117311;28;20024;-77
2021/07/12 10:52:58;;;;;;;10.52;6.63;;;;;;;;;;5117740;28;20073;-77
2021/07/12 10:55:30;;;;;;;9.40;6.30;;;;;;;;;;5117974;28;20402;-77
2021/07/12 10:58:15;;;;;;;12.65;6.40;;;;;;;;;;5118115;28;20065;-77
2021/07/12 11:00:41;;;;;;;8.60;6.93;;;;;;;;;;5116520;28;20028;-77
2021/07/12 11:03:27;;;;;;;6.80;6.10;;;;;;;;;;5117868;28;20034;-78
2021/07/12 11:05:53;;;;;;;13.60;5.88;;;;;;;;;;5116184;28;20429;-77
2021/07/12 11:08:38;;;;;;;11.73;7.55;;;;;;;;;;5118038;28;20019;-77
2021/07/12 11:11:04;;;;;;;12.02;6.60;;;;;;;;;;5116641;28;20026;-77
2021/07/12 11:14:00;;;;;;;10.25;6.65;;;;;;;;;;5117302;28;20456;-76
2021/07/12 11:16:41;;;;;;;14.80;6.80;;;;;;;;;;5115797;28;20327;-77
2021/07/12 11:19:28;;;;;;;13.00;6.47;;;;;;;;;;5117366;28;20048;-77
2021/07/12 11:22:12;;;;;;;11.60;7.65;;;;;;;;;;5116589;28;20023;-77
2021/07/12 11:24:39;;;;;;;9.43;6.80;;;;;;;;;;5117705;28;20019;-77
2021/07/12 11:27:06;;;;;;;10.00;6.80;;;;;;;;;;5116052;28;20138;-77
2021/07/12 11:29:38;;;;;;;9.80;6.63;;;;;;;;;;5117614;28;20016;-77
2021/07/12 11:32:07;;;;;;;11.52;6.63;;;;;;;;;;5117350;28;20420;-77
2021/07/12 11:34:39;;;;;;;13.32;6.00;;;;;;;;;;5116002;28;20153;-77
2021/07/12 11:37:13;;;;;;;14.38;6.50;;;;;;;;;;5117474;28;20098;-77
2021/07/12 11:39:40;;;;;;;14.80;6.72;;;;;;;;;;5117676;28;20050;-77
2021/07/12 11:42:23;;;;;;;15.05;9.02;;;;;;;;;;5116042;28;20127;-77
2021/07/12 11:44:52;;;;;;;10.35;5.95;;;;;;;;;;5115448;28;20024;-78
2021/07/12 11:47:27;;;;;;;10.48;6.30;;;;;;;;;;5101244;28;20110;-77
2021/07/12 11:49:57;;;;;;;8.75;6.18;;;;;;;;;;5100392;28;20034;-77
2021/07/12 11:52:23;;;;;;;;;;;;;;;;;;5110506;28;20030;-78
2021/07/12 11:54:56;;;;;;;11.85;7.03;;;;;;;;;;5101121;28;19994;-78
2021/07/12 11:57:22;;;;;;;9.57;7.38;;;;;;;;;;5100972;28;20352;-77
2021/07/12 11:59:48;;;;;;;8.93;7.25;;;;;;;;;;5100039;28;20054;-78
2021/07/12 12:02:15;;;;;;;13.85;7.38;;;;;;;;;;5100888;28;20024;-77
2021/07/12 12:04:46;;;;;;;38.90;34.42;;;;;;;;;;5099887;28;20024;-77
2021/07/12 12:07:21;;;;;;;17.70;11.88;;;;;;;;;;5101010;28;20024;-77
2021/07/12 12:09:51;;;;;;;12.77;8.80;;;;;;;;;;5100646;28;20028;-77
2021/07/12 12:12:21;;;;;;;10.80;6.25;;;;;;;;;;5099637;28;20310;-79
2021/07/12 12:14:47;;;;;;;8.33;6.03;;;;;;;;;;5099487;28;20055;-78
2021/07/12 12:17:13;;;;;;;21.52;15.05;;;;;;;;;;5100642;28;20264;-79
2021/07/12 12:19:39;;;;;;;8.75;7.45;;;;;;;;;;5100648;28;20024;-79
2021/07/12 12:22:05;;;;;;;32.53;27.13;;;;;;;;;;5100718;28;20016;-79
2021/07/12 12:24:31;;;;;;;20.88;12.35;;;;;;;;;;5100578;28;20030;-77
2021/07/12 12:26:57;;;;;;;13.88;10.52;;;;;;;;;;5100375;28;20027;-77
2021/07/12 12:29:23;;;;;;;8.43;6.40;;;;;;;;;;5098987;28;20318;-77
2021/07/12 12:31:49;;;;;;;9.88;5.95;;;;;;;;;;5100444;28;20072;-77
2021/07/12 12:34:17;;;;;;;6.88;5.90;;;;;;;;;;5100386;28;20027;-77
2021/07/12 12:36:43;;;;;;;11.50;6.28;;;;;;;;;;5100131;28;20020;-79
2021/07/12 12:39:14;;;;;;;8.13;7.05;;;;;;;;;;5110308;28;20055;-77
2021/07/12 12:41:49;;;;;;;9.90;6.13;;;;;;;;;;5120320;28;20316;-77
2021/07/12 12:44:18;;;;;;;8.85;6.72;;;;;;;;;;5120451;28;20077;-78
2021/07/12 12:46:53;;;;;;;10.75;7.18;;;;;;;;;;5120550;28;20039;-78
2021/07/12 12:49:21;;;;;;;12.57;6.50;;;;;;;;;;5118243;28;20057;-78
2021/07/12 12:51:54;;;;;;;9.43;6.57;;;;;;;;;;5116383;28;20022;-78
2021/07/12 12:54:21;;;;;;;8.13;6.53;;;;;;;;;;5105647;28;20024;-77
2021/07/12 12:56:54;;;;;;;9.32;6.25;;;;;;;;;;5098858;28;20031;-80
2021/07/12 12:59:37;;;;;;;8.45;5.97;;;;;;;;;;5107746;28;20027;-76
2021/07/12 13:02:03;;;;;;;9.55;6.28;;;;;;;;;;5110856;28;20035;-77
2021/07/12 13:04:40;;;;;;;8.35;6.43;;;;;;;;;;5099671;28;20040;-77
2021/07/12 13:07:06;;;;;;;10.65;6.85;;;;;;;;;;5099411;28;20341;-77
2021/07/12 13:09:33;;;;;;;9.82;6.72;;;;;;;;;;5099667;28;20021;-77
2021/07/12 13:12:05;;;;;;;8.80;6.28;;;;;;;;;;5099611;28;20016;-77
2021/07/12 13:14:32;;;;;;;8.27;6.85;;;;;;;;;;5097796;28;20056;-77
2021/07/12 13:17:12;;;;;;;11.52;6.18;;;;;;;;;;5099043;28;20043;-77
2021/07/12 13:19:39;;;;;;;8.57;5.95;;;;;;;;;;5098410;28;20020;-77
2021/07/12 13:22:19;;;;;;;8.32;5.97;;;;;;;;;;5099339;28;20031;-77
2021/07/12 13:24:50;;;;;;;8.33;5.73;;;;;;;;;;5099341;28;20414;-77
2021/07/12 13:27:35;;;;;;;6.93;6.07;;;;;;;;;;5099507;28;20351;-77
2021/07/12 13:30:03;;;;;;;7.60;6.25;;;;;;;;;;5099356;28;20016;-77
2021/07/12 13:32:29;;;;;;;7.55;6.22;;;;;;;;;;5099290;28;20024;-77
2021/07/12 13:34:55;;;;;;;9.35;5.72;;;;;;;;;;5098129;28;20024;-77
2021/07/12 13:37:22;;;;;;;7.68;6.32;;;;;;;;;;5099450;28;20044;-77
2021/07/12 13:39:48;;;;;;;8.40;6.13;;;;;;;;;;5098223;28;20031;-77
2021/07/12 13:42:14;;;;;;;9.32;5.97;;;;;;;;;;5099142;28;20056;-77
2021/07/12 13:44:40;;;;;;;8.52;6.50;;;;;;;;;;5098653;28;20031;-77
2021/07/12 13:47:06;;;;;;;7.50;5.88;;;;;;;;;;5099133;28;20032;-77
2021/07/12 13:49:32;;;;;;;6.90;6.20;;;;;;;;;;5097845;28;20031;-77
2021/07/12 13:51:58;;;;;;;8.40;5.93;;;;;;;;;;5097098;28;20437;-77
2021/07/12 13:54:24;;;;;;;17.23;6.57;;;;;;;;;;5097724;28;20116;-77
2021/07/12 13:56:50;;;;;;;8.85;5.75;;;;;;;;;;5098669;28;20035;-77
2021/07/12 13:59:17;;;;;;;9.40;6.15;;;;;;;;;;5098768;28;20028;-77
2021/07/12 14:01:45;;;;;;;8.20;6.53;;;;;;;;;;5098675;28;20039;-77
2021/07/12 14:04:11;;;;;;;7.43;6.05;;;;;;;;;;5098778;28;20043;-77
2021/07/12 14:06:37;;;;;;;7.75;6.20;;;;;;;;;;5098835;28;20118;-77
2021/07/12 14:09:04;;;;;;;6.18;5.57;;;;;;;;;;5097432;28;20071;-77
2021/07/12 14:11:30;;;;;;;7.40;5.40;;;;;;;;;;5098510;28;20024;-77
2021/07/12 14:13:56;;;;;;;8.00;6.38;;;;;;;;;;5097709;28;20043;-77
2021/07/12 14:16:24;;;;;;;8.50;6.07;;;;;;;;;;5098249;28;20028;-77
2021/07/12 14:18:53;;;;;;;7.43;5.53;;;;;;;;;;5098491;28;20065;-77
2021/07/12 14:21:20;;;;;;;8.40;5.63;;;;;;;;;;5098407;28;20047;-77
2021/07/12 14:23:46;;;;;;;9.40;6.07;;;;;;;;;;5098260;28;20023;-77
2021/07/12 14:26:19;;;;;;;6.20;5.60;;;;;;;;;;5098037;28;20411;-77
2021/07/12 14:28:46;;;;;;;9.27;5.90;;;;;;;;;;5096628;28;20024;-77
2021/07/12 14:31:14;;;;;;;7.47;6.00;;;;;;;;;;5096702;28;20060;-77
2021/07/12 14:33:40;;;;;;;8.52;5.90;;;;;;;;;;5098483;28;20078;-77
2021/07/12 14:36:06;;;;;;;8.32;6.22;;;;;;;;;;5098203;28;20020;-78
2021/07/12 14:38:32;;;;;;;10.77;6.30;;;;;;;;;;5098139;28;20100;-77
2021/07/12 14:40:58;;;;;;;9.50;6.60;;;;;;;;;;5097956;28;20073;-80
2021/07/12 14:43:24;;;;;;;9.40;6.28;;;;;;;;;;5096863;28;20032;-80
2021/07/12 14:45:50;;;;;;;10.07;6.63;;;;;;;;;;5102053;28;20036;-79
2021/07/12 14:48:16;;;;;;;9.07;6.53;;;;;;;;;;5107859;27;20028;-79
2021/07/12 14:50:45;;;;;;;8.20;6.45;;;;;;;;;;5118087;28;20113;-80
2021/07/12 14:53:11;;;;;;;9.13;6.15;;;;;;;;;;5101483;28;20016;-80
2021/07/12 14:55:37;;;;;;;7.55;6.32;;;;;;;;;;5097666;28;20024;-80
2021/07/12 14:58:03;;;;;;;8.15;6.03;;;;;;;;;;5097722;28;20103;-80
2021/07/12 15:00:30;;;;;;;12.30;6.35;;;;;;;;;;5110023;28;20050;-80
2021/07/12 15:02:56;;;;;;;14.40;7.43;;;;;;;;;;5117879;28;20064;-80
2021/07/12 15:05:22;;;;;;;7.90;6.05;;;;;;;;;;5117912;28;20027;-80
2021/07/12 15:07:48;;;;;;;9.77;6.68;;;;;;;;;;5118114;28;20088;-80
2021/07/12 15:10:14;;;;;;;10.10;6.45;;;;;;;;;;5117864;28;20077;-80
2021/07/12 15:12:40;;;;;;;9.10;6.82;;;;;;;;;;5116692;28;20019;-79
2021/07/12 15:15:07;;;;;;;7.50;6.72;;;;;;;;;;5117178;28;20048;-79
2021/07/12 15:17:33;;;;;;;10.60;6.47;;;;;;;;;;5117717;28;20043;-81